sensor_id;sensor_type;location;lat;lon;timestamp;pressure;altitude;pressure_sealevel;temperature;humidity
49515;BME280;35415;47.870;16.058;2023-03-04T00:01:57;97507.09;;;1.80;77.94
49515;BME280;35415;47.870;16.058;2023-03-04T00:04:24;97514.44;;;1.78;77.33
49515;BME280;35415;47.870;16.058;2023-03-04T00:06:58;97431.47;;;1.32;76.80
49515;BME280;35415;47.870;16.058;2023-03-04T00:09:26;97533.41;;;1.89;77.51
49515;BME280;35415;47.870;16.058;2023-03-04T00:11:57;97507.53;;;1.71;76.93
49515;BME280;35415;47.870;16.058;2023-03-04T00:14:24;97513.66;;;1.71;76.67
49515;BME280;35415;47.870;16.058;2023-03-04T00:16:52;97541.56;;;1.80;77.38
49515;BME280;35415;47.870;16.058;2023-03-04T00:19:22;97449.41;;;1.10;77.69
49515;BME280;35415;47.870;16.058;2023-03-04T00:21:56;97437.56;;;0.99;76.40
49515;BME280;35415;47.870;16.058;2023-03-04T00:24:27;97538.53;;;1.70;77.28
49515;BME280;35415;47.870;16.058;2023-03-04T00:26:56;97446.56;;;1.05;76.94
49515;BME280;35415;47.870;16.058;2023-03-04T00:29:24;97536.88;;;1.63;78.00
49515;BME280;35415;47.870;16.058;2023-03-04T00:31:52;97532.00;;;1.60;77.21
49515;BME280;35415;47.870;16.058;2023-03-04T00:34:28;97526.09;;;1.58;77.78
49515;BME280;35415;47.870;16.058;2023-03-04T00:36:58;97432.88;;;0.81;78.22
49515;BME280;35415;47.870;16.058;2023-03-04T00:39:33;97527.91;;;1.50;79.50
49515;BME280;35415;47.870;16.058;2023-03-04T00:42:03;97458.78;;;1.06;78.12
49515;BME280;35415;47.870;16.058;2023-03-04T00:44:36;97525.25;;;1.44;78.27
49515;BME280;35415;47.870;16.058;2023-03-04T00:47:05;97515.88;;;1.41;78.44
49515;BME280;35415;47.870;16.058;2023-03-04T00:49:34;97435.72;;;0.80;78.82
49515;BME280;35415;47.870;16.058;2023-03-04T00:52:04;97512.22;;;1.36;78.78
49515;BME280;35415;47.870;16.058;2023-03-04T00:54:32;97406.19;;;0.70;78.73
49515;BME280;35415;47.870;16.058;2023-03-04T00:56:59;97396.63;;;0.69;79.32
49515;BME280;35415;47.870;16.058;2023-03-04T00:59:32;97401.72;;;0.70;80.57
49515;BME280;35415;47.870;16.058;2023-03-04T01:02:02;97486.72;;;1.22;79.93
49515;BME280;35415;47.870;16.058;2023-03-04T01:04:36;97485.50;;;1.24;80.21
49515;BME280;35415;47.870;16.058;2023-03-04T01:07:10;97432.69;;;0.89;79.56
49515;BME280;35415;47.870;16.058;2023-03-04T01:09:41;97481.84;;;1.18;79.62
49515;BME280;35415;47.870;16.058;2023-03-04T01:12:08;97451.03;;;0.98;81.02
49515;BME280;35415;47.870;16.058;2023-03-04T01:14:37;97419.63;;;0.68;80.33
49515;BME280;35415;47.870;16.058;2023-03-04T01:17:05;97458.75;;;0.93;80.16
49515;BME280;35415;47.870;16.058;2023-03-04T01:19:33;97472.66;;;1.08;80.50
49515;BME280;35415;47.870;16.058;2023-03-04T01:22:00;97367.66;;;0.34;80.34
49515;BME280;35415;47.870;16.058;2023-03-04T01:24:34;97372.53;;;0.44;80.28
49515;BME280;35415;47.870;16.058;2023-03-04T01:27:02;97458.56;;;1.01;79.71
49515;BME280;35415;47.870;16.058;2023-03-04T01:29:30;97433.31;;;0.85;81.04
49515;BME280;35415;47.870;16.058;2023-03-04T01:32:13;97433.88;;;0.80;79.97
49515;BME280;35415;47.870;16.058;2023-03-04T01:34:44;97436.53;;;0.80;80.25
49515;BME280;35415;47.870;16.058;2023-03-04T01:37:33;97424.13;;;0.74;80.64
49515;BME280;35415;47.870;16.058;2023-03-04T01:40:03;97432.25;;;0.73;80.87
49515;BME280;35415;47.870;16.058;2023-03-04T01:42:35;97393.75;;;0.57;80.37
49515;BME280;35415;47.870;16.058;2023-03-04T01:45:21;97442.66;;;0.81;80.42
49515;BME280;35415;47.870;16.058;2023-03-04T01:47:50;97432.47;;;0.78;79.75
49515;BME280;35415;47.870;16.058;2023-03-04T01:50:21;97391.47;;;0.47;81.10
49515;BME280;35415;47.870;16.058;2023-03-04T01:52:49;97433.06;;;0.73;80.19
49515;BME280;35415;47.870;16.058;2023-03-04T01:55:18;97395.34;;;0.38;81.16
49515;BME280;35415;47.870;16.058;2023-03-04T01:57:47;97351.69;;;0.14;81.84
49515;BME280;35415;47.870;16.058;2023-03-04T02:00:22;97376.81;;;0.38;81.21
49515;BME280;35415;47.870;16.058;2023-03-04T02:02:56;97421.44;;;0.61;81.76
49515;BME280;35415;47.870;16.058;2023-03-04T02:05:25;97412.88;;;0.59;81.94
49515;BME280;35415;47.870;16.058;2023-03-04T02:07:54;97397.16;;;0.44;82.71
49515;BME280;35415;47.870;16.058;2023-03-04T02:10:22;97391.25;;;0.42;82.80
49515;BME280;35415;47.870;16.058;2023-03-04T02:12:51;97385.94;;;0.29;81.80
49515;BME280;35415;47.870;16.058;2023-03-04T02:15:19;97395.94;;;0.40;83.25
49515;BME280;35415;47.870;16.058;2023-03-04T02:17:49;97403.06;;;0.46;83.20
49515;BME280;35415;47.870;16.058;2023-03-04T02:20:36;97311.13;;;-0.19;82.33
49515;BME280;35415;47.870;16.058;2023-03-04T02:23:10;97404.50;;;0.42;83.11
49515;BME280;35415;47.870;16.058;2023-03-04T02:25:44;97373.91;;;0.20;83.07
49515;BME280;35415;47.870;16.058;2023-03-04T02:28:14;97407.50;;;0.33;83.93
49515;BME280;35415;47.870;16.058;2023-03-04T02:30:43;97300.06;;;-0.36;83.66
49515;BME280;35415;47.870;16.058;2023-03-04T02:33:17;97393.25;;;0.27;84.00
49515;BME280;35415;47.870;16.058;2023-03-04T02:35:45;97392.84;;;0.23;84.21
49515;BME280;35415;47.870;16.058;2023-03-04T02:38:17;97391.81;;;0.18;84.09
49515;BME280;35415;47.870;16.058;2023-03-04T02:40:47;97296.59;;;-0.50;84.27
49515;BME280;35415;47.870;16.058;2023-03-04T02:43:19;97385.72;;;0.17;84.45
49515;BME280;35415;47.870;16.058;2023-03-04T02:45:48;97381.41;;;0.16;84.76
49515;BME280;35415;47.870;16.058;2023-03-04T02:48:18;97384.66;;;0.12;84.93
49515;BME280;35415;47.870;16.058;2023-03-04T02:50:47;97373.25;;;0.11;85.33
49515;BME280;35415;47.870;16.058;2023-03-04T02:53:16;97295.38;;;-0.47;85.92
49515;BME280;35415;47.870;16.058;2023-03-04T02:55:43;97345.94;;;-0.09;86.11
49515;BME280;35415;47.870;16.058;2023-03-04T02:58:13;97370.41;;;0.06;86.16
49515;BME280;35415;47.870;16.058;2023-03-04T03:00:43;97341.47;;;-0.09;86.11
49515;BME280;35415;47.870;16.058;2023-03-04T03:03:10;97351.03;;;-0.08;86.06
49515;BME280;35415;47.870;16.058;2023-03-04T03:05:38;97292.69;;;-0.54;85.92
49515;BME280;35415;47.870;16.058;2023-03-04T03:08:05;97279.25;;;-0.59;86.45
49515;BME280;35415;47.870;16.058;2023-03-04T03:10:35;97248.31;;;-0.72;86.73
49515;BME280;35415;47.870;16.058;2023-03-04T03:13:02;97333.06;;;-0.25;86.46
49515;BME280;35415;47.870;16.058;2023-03-04T03:15:30;97338.03;;;-0.03;88.20
49515;BME280;35415;47.870;16.058;2023-03-04T03:17:59;97283.19;;;-0.42;87.54
49515;BME280;35415;47.870;16.058;2023-03-04T03:20:30;97330.91;;;-0.02;89.54
49515;BME280;35415;47.870;16.058;2023-03-04T03:22:59;97306.47;;;-0.11;90.62
49515;BME280;35415;47.870;16.058;2023-03-04T03:25:29;97275.75;;;-0.18;94.54
49515;BME280;35415;47.870;16.058;2023-03-04T03:27:59;97302.09;;;0.23;96.93
49515;BME280;35415;47.870;16.058;2023-03-04T03:30:31;97296.41;;;0.46;100.00
49515;BME280;35415;47.870;16.058;2023-03-04T03:33:01;97232.28;;;0.30;100.00
49515;BME280;35415;47.870;16.058;2023-03-04T03:35:31;97262.19;;;0.84;100.00
49515;BME280;35415;47.870;16.058;2023-03-04T03:38:01;97243.22;;;1.07;100.00
49515;BME280;35415;47.870;16.058;2023-03-04T03:40:31;97313.72;;;1.79;100.00
49515;BME280;35415;47.870;16.058;2023-03-04T03:43:00;97272.03;;;1.93;100.00
49515;BME280;35415;47.870;16.058;2023-03-04T03:45:30;97260.88;;;2.16;99.36
49515;BME280;35415;47.870;16.058;2023-03-04T03:48:01;97291.16;;;2.64;98.10
49515;BME280;35415;47.870;16.058;2023-03-04T03:50:31;97265.75;;;2.75;96.76
49515;BME280;35415;47.870;16.058;2023-03-04T03:53:00;97254.78;;;2.90;95.51
49515;BME280;35415;47.870;16.058;2023-03-04T03:55:28;97281.47;;;3.20;94.20
49515;BME280;35415;47.870;16.058;2023-03-04T03:57:55;97252.06;;;3.33;92.84
49515;BME280;35415;47.870;16.058;2023-03-04T04:00:25;97193.00;;;3.13;91.70
49515;BME280;35415;47.870;16.058;2023-03-04T04:02:56;97194.25;;;3.28;90.94
49515;BME280;35415;47.870;16.058;2023-03-04T04:05:26;97279.28;;;4.02;89.80
49515;BME280;35415;47.870;16.058;2023-03-04T04:07:54;97276.66;;;4.13;89.02
49515;BME280;35415;47.870;16.058;2023-03-04T04:10:21;97268.38;;;4.21;88.91
49515;BME280;35415;47.870;16.058;2023-03-04T04:12:48;97206.72;;;3.95;87.80
49515;BME280;35415;47.870;16.058;2023-03-04T04:15:15;97266.56;;;4.45;87.23
49515;BME280;35415;47.870;16.058;2023-03-04T04:17:43;97264.59;;;4.52;86.71
49515;BME280;35415;47.870;16.058;2023-03-04T04:20:10;97251.16;;;4.47;85.90
49515;BME280;35415;47.870;16.058;2023-03-04T04:22:39;97258.59;;;4.69;85.52
49515;BME280;35415;47.870;16.058;2023-03-04T04:25:10;97227.78;;;4.49;85.03
49515;BME280;35415;47.870;16.058;2023-03-04T04:27:37;97175.78;;;4.23;84.61
49515;BME280;35415;47.870;16.058;2023-03-04T04:30:05;97249.00;;;4.79;84.00
49515;BME280;35415;47.870;16.058;2023-03-04T04:32:33;97194.53;;;4.52;83.48
49515;BME280;35415;47.870;16.058;2023-03-04T04:35:00;97236.84;;;4.83;83.34
49515;BME280;35415;47.870;16.058;2023-03-04T04:37:27;97238.94;;;4.93;82.97
49515;BME280;35415;47.870;16.058;2023-03-04T04:39:56;97242.88;;;5.02;82.65
49515;BME280;35415;47.870;16.058;2023-03-04T04:42:24;97246.81;;;5.11;82.56
49515;BME280;35415;47.870;16.058;2023-03-04T04:44:51;97244.25;;;5.17;81.91
49515;BME280;35415;47.870;16.058;2023-03-04T04:47:18;97228.72;;;5.13;81.89
49515;BME280;35415;47.870;16.058;2023-03-04T04:49:46;97248.09;;;5.21;81.92
49515;BME280;35415;47.870;16.058;2023-03-04T04:52:13;97191.31;;;4.85;81.58
49515;BME280;35415;47.870;16.058;2023-03-04T04:54:43;97156.47;;;4.75;81.57
49515;BME280;35415;47.870;16.058;2023-03-04T04:57:12;97215.16;;;5.15;81.12
49515;BME280;35415;47.870;16.058;2023-03-04T04:59:39;97248.06;;;5.32;80.71
49515;BME280;35415;47.870;16.058;2023-03-04T05:02:06;97231.16;;;5.27;80.90
49515;BME280;35415;47.870;16.058;2023-03-04T05:04:36;97203.13;;;5.12;80.68
49515;BME280;35415;47.870;16.058;2023-03-04T05:07:03;97201.34;;;5.18;80.14
49515;BME280;35415;47.870;16.058;2023-03-04T05:09:30;97143.09;;;4.87;80.14
49515;BME280;35415;47.870;16.058;2023-03-04T05:11:58;97241.44;;;5.47;80.17
49515;BME280;35415;47.870;16.058;2023-03-04T05:14:27;97150.50;;;4.96;79.43
49515;BME280;35415;47.870;16.058;2023-03-04T05:16:54;97242.47;;;5.57;79.65
49515;BME280;35415;47.870;16.058;2023-03-04T05:19:21;97176.22;;;5.14;79.46
49515;BME280;35415;47.870;16.058;2023-03-04T05:21:51;97197.63;;;5.31;79.29
49515;BME280;35415;47.870;16.058;2023-03-04T05:24:20;97205.38;;;5.44;78.92
49515;BME280;35415;47.870;16.058;2023-03-04T05:26:47;97216.38;;;5.48;79.27
49515;BME280;35415;47.870;16.058;2023-03-04T05:29:14;97164.06;;;5.06;78.76
49515;BME280;35415;47.870;16.058;2023-03-04T05:31:43;97247.00;;;5.57;78.79
49515;BME280;35415;47.870;16.058;2023-03-04T05:34:11;97213.00;;;5.52;78.84
49515;BME280;35415;47.870;16.058;2023-03-04T05:36:40;97208.28;;;5.42;78.63
49515;BME280;35415;47.870;16.058;2023-03-04T05:39:07;97256.31;;;5.71;78.26
49515;BME280;35415;47.870;16.058;2023-03-04T05:41:34;97260.16;;;5.75;78.13
49515;BME280;35415;47.870;16.058;2023-03-04T05:44:01;97235.34;;;5.74;78.10
49515;BME280;35415;47.870;16.058;2023-03-04T05:46:31;97254.09;;;5.80;77.84
49515;BME280;35415;47.870;16.058;2023-03-04T05:49:00;97246.09;;;5.80;77.78
49515;BME280;35415;47.870;16.058;2023-03-04T05:51:27;97175.72;;;5.29;77.65
49515;BME280;35415;47.870;16.058;2023-03-04T05:53:55;97161.25;;;5.25;77.27
49515;BME280;35415;47.870;16.058;2023-03-04T05:56:22;97214.59;;;5.65;77.52
49515;BME280;35415;47.870;16.058;2023-03-04T05:58:49;97249.22;;;5.88;77.21
49515;BME280;35415;47.870;16.058;2023-03-04T06:01:17;97209.59;;;5.68;77.01
49515;BME280;35415;47.870;16.058;2023-03-04T06:03:44;97226.84;;;5.78;77.02
49515;BME280;35415;47.870;16.058;2023-03-04T06:06:16;97176.00;;;5.56;77.19
49515;BME280;35415;47.870;16.058;2023-03-04T06:08:45;97148.66;;;5.37;76.77
49515;BME280;35415;47.870;16.058;2023-03-04T06:11:12;97252.91;;;5.99;76.74
49515;BME280;35415;47.870;16.058;2023-03-04T06:13:43;97232.94;;;6.01;76.43
49515;BME280;35415;47.870;16.058;2023-03-04T06:16:16;97250.31;;;6.04;76.81
49515;BME280;35415;47.870;16.058;2023-03-04T06:18:46;97265.31;;;6.05;76.25
49515;BME280;35415;47.870;16.058;2023-03-04T06:21:18;97164.66;;;5.49;76.46
49515;BME280;35415;47.870;16.058;2023-03-04T06:23:47;97217.13;;;5.71;76.21
49515;BME280;35415;47.870;16.058;2023-03-04T06:26:19;97254.81;;;6.15;75.98
49515;BME280;35415;47.870;16.058;2023-03-04T06:29:06;97259.44;;;6.20;75.66
49515;BME280;35415;47.870;16.058;2023-03-04T06:31:35;97263.25;;;6.24;75.38
49515;BME280;35415;47.870;16.058;2023-03-04T06:34:13;97178.84;;;5.66;75.29
49515;BME280;35415;47.870;16.058;2023-03-04T06:36:42;97246.56;;;6.17;75.38
49515;BME280;35415;47.870;16.058;2023-03-04T06:39:10;97154.41;;;5.57;75.31
49515;BME280;35415;47.870;16.058;2023-03-04T06:41:46;97252.91;;;6.27;74.99
49515;BME280;35415;47.870;16.058;2023-03-04T06:44:13;97199.91;;;5.91;75.06
49515;BME280;35415;47.870;16.058;2023-03-04T06:46:43;97194.56;;;5.91;74.90
49515;BME280;35415;47.870;16.058;2023-03-04T06:49:16;97175.91;;;5.79;74.67
49515;BME280;35415;47.870;16.058;2023-03-04T06:51:53;97166.59;;;5.82;74.89
49515;BME280;35415;47.870;16.058;2023-03-04T06:54:39;97185.91;;;6.00;74.42
49515;BME280;35415;47.870;16.058;2023-03-04T06:57:08;97181.81;;;6.10;73.73
49515;BME280;35415;47.870;16.058;2023-03-04T06:59:35;97245.41;;;6.58;73.67
49515;BME280;35415;47.870;16.058;2023-03-04T07:02:04;97179.22;;;6.15;73.72
49515;BME280;35415;47.870;16.058;2023-03-04T07:04:32;97204.59;;;6.29;73.92
49515;BME280;35415;47.870;16.058;2023-03-04T07:07:01;97225.00;;;6.69;73.24
49515;BME280;35415;47.870;16.058;2023-03-04T07:09:29;97193.50;;;6.37;73.01
49515;BME280;35415;47.870;16.058;2023-03-04T07:11:56;97287.16;;;6.92;73.12
49515;BME280;35415;47.870;16.058;2023-03-04T07:14:23;97256.69;;;6.93;73.00
49515;BME280;35415;47.870;16.058;2023-03-04T07:16:54;97237.84;;;6.88;72.81
49515;BME280;35415;47.870;16.058;2023-03-04T07:19:22;97166.22;;;6.52;72.29
49515;BME280;35415;47.870;16.058;2023-03-04T07:21:51;97264.50;;;7.17;71.81
49515;BME280;35415;47.870;16.058;2023-03-04T07:24:20;97264.81;;;7.20;71.44
49515;BME280;35415;47.870;16.058;2023-03-04T07:26:59;97247.81;;;7.10;71.64
49515;BME280;35415;47.870;16.058;2023-03-04T07:29:28;97209.84;;;6.91;71.20
49515;BME280;35415;47.870;16.058;2023-03-04T07:32:05;97276.38;;;7.43;70.93
49515;BME280;35415;47.870;16.058;2023-03-04T07:34:34;97261.69;;;7.45;70.44
49515;BME280;35415;47.870;16.058;2023-03-04T07:37:02;97245.25;;;7.37;70.19
49515;BME280;35415;47.870;16.058;2023-03-04T07:39:34;97191.72;;;7.15;69.90
49515;BME280;35415;47.870;16.058;2023-03-04T07:42:06;97263.06;;;7.70;69.88
49515;BME280;35415;47.870;16.058;2023-03-04T07:44:34;97202.63;;;7.30;69.72
49515;BME280;35415;47.870;16.058;2023-03-04T07:47:03;97264.00;;;7.80;69.36
49515;BME280;35415;47.870;16.058;2023-03-04T07:49:30;97171.56;;;7.29;69.21
49515;BME280;35415;47.870;16.058;2023-03-04T07:52:01;97232.31;;;7.72;68.21
49515;BME280;35415;47.870;16.058;2023-03-04T07:54:33;97161.06;;;7.44;68.25
49515;BME280;35415;47.870;16.058;2023-03-04T07:57:00;97185.03;;;7.56;67.97
49515;BME280;35415;47.870;16.058;2023-03-04T07:59:29;97248.56;;;8.09;68.02
49515;BME280;35415;47.870;16.058;2023-03-04T08:01:56;97196.41;;;7.68;67.90
49515;BME280;35415;47.870;16.058;2023-03-04T08:04:24;97219.78;;;8.00;67.62
49515;BME280;35415;47.870;16.058;2023-03-04T08:06:51;97244.41;;;8.24;67.69
49515;BME280;35415;47.870;16.058;2023-03-04T08:09:18;97154.28;;;7.59;67.46
49515;BME280;35415;47.870;16.058;2023-03-04T08:11:47;97242.41;;;8.36;67.06
49515;BME280;35415;47.870;16.058;2023-03-04T08:14:18;97208.28;;;8.04;66.53
49515;BME280;35415;47.870;16.058;2023-03-04T08:16:45;97209.63;;;8.29;66.99
49515;BME280;35415;47.870;16.058;2023-03-04T08:19:14;97207.34;;;8.15;66.92
49515;BME280;35415;47.870;16.058;2023-03-04T08:21:43;97171.81;;;7.98;67.00
49515;BME280;35415;47.870;16.058;2023-03-04T08:24:12;97194.72;;;8.38;66.50
49515;BME280;35415;47.870;16.058;2023-03-04T08:26:42;97202.56;;;8.44;66.09
49515;BME280;35415;47.870;16.058;2023-03-04T08:29:26;97237.94;;;8.73;65.91
49515;BME280;35415;47.870;16.058;2023-03-04T08:32:05;97195.06;;;8.47;65.46
49515;BME280;35415;47.870;16.058;2023-03-04T08:34:38;97212.78;;;8.85;65.24
49515;BME280;35415;47.870;16.058;2023-03-04T08:37:08;97184.44;;;8.57;65.19
49515;BME280;35415;47.870;16.058;2023-03-04T08:39:39;97143.66;;;8.55;64.26
49515;BME280;35415;47.870;16.058;2023-03-04T08:42:10;97208.59;;;8.99;63.80
49515;BME280;35415;47.870;16.058;2023-03-04T08:44:46;97218.03;;;9.07;63.80
49515;BME280;35415;47.870;16.058;2023-03-04T08:47:14;97236.16;;;9.26;63.39
49515;BME280;35415;47.870;16.058;2023-03-04T08:49:41;97155.09;;;8.77;63.47
49515;BME280;35415;47.870;16.058;2023-03-04T08:52:11;97239.94;;;9.30;63.19
49515;BME280;35415;47.870;16.058;2023-03-04T08:54:38;97193.03;;;9.01;62.91
49515;BME280;35415;47.870;16.058;2023-03-04T08:57:08;97137.16;;;8.83;62.17
49515;BME280;35415;47.870;16.058;2023-03-04T08:59:36;97191.03;;;9.23;61.77
49515;BME280;35415;47.870;16.058;2023-03-04T09:02:06;97201.03;;;9.38;61.94
49515;BME280;35415;47.870;16.058;2023-03-04T09:04:36;97211.03;;;9.53;60.21
49515;BME280;35415;47.870;16.058;2023-03-04T09:07:03;97178.66;;;9.22;58.50
49515;BME280;35415;47.870;16.058;2023-03-04T09:09:32;97169.63;;;9.33;57.37
49515;BME280;35415;47.870;16.058;2023-03-04T09:12:02;97135.78;;;9.27;56.73
49515;BME280;35415;47.870;16.058;2023-03-04T09:14:38;97233.72;;;9.87;56.20
49515;BME280;35415;47.870;16.058;2023-03-04T09:17:07;97122.66;;;9.36;54.48
49515;BME280;35415;47.870;16.058;2023-03-04T09:19:34;97210.09;;;9.79;54.05
49515;BME280;35415;47.870;16.058;2023-03-04T09:22:03;97183.97;;;9.64;53.81
49515;BME280;35415;47.870;16.058;2023-03-04T09:26:59;97155.78;;;9.72;52.98
49515;BME280;35415;47.870;16.058;2023-03-04T09:29:26;97185.69;;;10.01;52.08
49515;BME280;35415;47.870;16.058;2023-03-04T09:31:57;97202.66;;;10.17;51.27
49515;BME280;35415;47.870;16.058;2023-03-04T09:34:28;97200.50;;;10.14;50.31
49515;BME280;35415;47.870;16.058;2023-03-04T09:36:56;97178.47;;;10.12;48.83
49515;BME280;35415;47.870;16.058;2023-03-04T09:39:23;97170.94;;;10.19;48.50
49515;BME280;35415;47.870;16.058;2023-03-04T09:41:54;97197.34;;;10.32;48.23
49515;BME280;35415;47.870;16.058;2023-03-04T09:44:26;97201.94;;;10.42;47.67
49515;BME280;35415;47.870;16.058;2023-03-04T09:46:57;97196.53;;;10.47;47.39
49515;BME280;35415;47.870;16.058;2023-03-04T09:49:30;97158.34;;;10.24;46.41
49515;BME280;35415;47.870;16.058;2023-03-04T09:52:02;97175.56;;;10.39;47.92
49515;BME280;35415;47.870;16.058;2023-03-04T09:54:57;97155.66;;;10.55;47.34
49515;BME280;35415;47.870;16.058;2023-03-04T09:57:29;97144.63;;;10.36;46.28
49515;BME280;35415;47.870;16.058;2023-03-04T10:00:10;97214.56;;;10.92;45.92
49515;BME280;35415;47.870;16.058;2023-03-04T10:02:55;97125.81;;;10.51;44.97
49515;BME280;35415;47.870;16.058;2023-03-04T10:05:31;97156.72;;;10.74;45.44
49515;BME280;35415;47.870;16.058;2023-03-04T10:08:09;97129.84;;;10.59;45.22
49515;BME280;35415;47.870;16.058;2023-03-04T10:10:45;97137.88;;;10.84;44.56
49515;BME280;35415;47.870;16.058;2023-03-04T10:13:20;97141.91;;;10.92;43.90
49515;BME280;35415;47.870;16.058;2023-03-04T10:15:54;97174.38;;;11.21;43.94
49515;BME280;35415;47.870;16.058;2023-03-04T10:18:26;97082.19;;;10.75;43.80
49515;BME280;35415;47.870;16.058;2023-03-04T10:21:01;97101.56;;;10.82;43.17
49515;BME280;35415;47.870;16.058;2023-03-04T10:23:32;97171.66;;;11.36;43.08
49515;BME280;35415;47.870;16.058;2023-03-04T10:26:12;97182.41;;;11.41;43.08
49515;BME280;35415;47.870;16.058;2023-03-04T10:28:39;97100.16;;;11.00;42.26
49515;BME280;35415;47.870;16.058;2023-03-04T10:31:11;97165.41;;;11.51;42.16
49515;BME280;35415;47.870;16.058;2023-03-04T10:33:49;97122.19;;;11.17;42.05
49515;BME280;35415;47.870;16.058;2023-03-04T10:36:37;97135.88;;;11.31;42.54
49515;BME280;35415;47.870;16.058;2023-03-04T10:39:08;97079.13;;;11.07;42.13
49515;BME280;35415;47.870;16.058;2023-03-04T10:41:41;97100.38;;;11.19;42.06
49515;BME280;35415;47.870;16.058;2023-03-04T10:44:15;97106.53;;;11.29;42.18
49515;BME280;35415;47.870;16.058;2023-03-04T10:46:44;97109.72;;;11.36;42.28
49515;BME280;35415;47.870;16.058;2023-03-04T10:49:15;97088.50;;;11.25;41.84
49515;BME280;35415;47.870;16.058;2023-03-04T10:51:46;97083.66;;;11.27;42.27
49515;BME280;35415;47.870;16.058;2023-03-04T10:54:24;97123.09;;;11.62;41.40
49515;BME280;35415;47.870;16.058;2023-03-04T10:57:00;97109.41;;;11.48;41.17
49515;BME280;35415;47.870;16.058;2023-03-04T10:59:41;97101.53;;;11.57;41.42
49515;BME280;35415;47.870;16.058;2023-03-04T11:02:19;97123.28;;;11.81;40.84
49515;BME280;35415;47.870;16.058;2023-03-04T11:04:55;97104.19;;;11.67;41.07
49515;BME280;35415;47.870;16.058;2023-03-04T11:07:26;97093.63;;;11.75;40.36
49515;BME280;35415;47.870;16.058;2023-03-04T11:09:53;97072.91;;;11.71;40.04
49515;BME280;35415;47.870;16.058;2023-03-04T11:12:31;97132.00;;;12.07;39.77
49515;BME280;35415;47.870;16.058;2023-03-04T11:15:02;97045.78;;;11.57;39.78
49515;BME280;35415;47.870;16.058;2023-03-04T11:17:41;97117.28;;;11.94;40.40
49515;BME280;35415;47.870;16.058;2023-03-04T11:20:15;97103.75;;;11.99;38.81
49515;BME280;35415;47.870;16.058;2023-03-04T11:22:48;97138.66;;;12.19;38.98
49515;BME280;35415;47.870;16.058;2023-03-04T11:25:22;97138.94;;;12.18;39.72
49515;BME280;35415;47.870;16.058;2023-03-04T11:27:53;97117.72;;;12.06;39.55
49515;BME280;35415;47.870;16.058;2023-03-04T11:30:33;97129.28;;;12.12;39.31
49515;BME280;35415;47.870;16.058;2023-03-04T11:33:11;97130.00;;;12.22;39.19
49515;BME280;35415;47.870;16.058;2023-03-04T11:35:47;97140.88;;;12.07;39.17
49515;BME280;35415;47.870;16.058;2023-03-04T11:38:22;97077.41;;;11.86;39.05
49515;BME280;35415;47.870;16.058;2023-03-04T11:40:55;97084.03;;;12.03;38.83
49515;BME280;35415;47.870;16.058;2023-03-04T11:43:27;97059.31;;;11.91;38.78
49515;BME280;35415;47.870;16.058;2023-03-04T11:46:08;97036.22;;;11.75;39.07
49515;BME280;35415;47.870;16.058;2023-03-04T11:48:49;97058.78;;;11.89;38.82
49515;BME280;35415;47.870;16.058;2023-03-04T11:51:24;97061.22;;;11.91;38.86
49515;BME280;35415;47.870;16.058;2023-03-04T11:54:05;97065.50;;;11.92;38.63
49515;BME280;35415;47.870;16.058;2023-03-04T11:56:42;97110.94;;;12.14;38.76
49515;BME280;35415;47.870;16.058;2023-03-04T11:59:27;97131.03;;;12.31;38.48
49515;BME280;35415;47.870;16.058;2023-03-04T12:02:10;97038.91;;;11.75;38.70
49515;BME280;35415;47.870;16.058;2023-03-04T12:04:58;97069.63;;;11.84;38.48
49515;BME280;35415;47.870;16.058;2023-03-04T12:07:47;97066.59;;;11.91;37.70
49515;BME280;35415;47.870;16.058;2023-03-04T12:10:26;97117.06;;;12.19;38.06
49515;BME280;35415;47.870;16.058;2023-03-04T12:13:15;97056.72;;;11.81;37.55
49515;BME280;35415;47.870;16.058;2023-03-04T12:15:50;97042.44;;;11.81;37.78
49515;BME280;35415;47.870;16.058;2023-03-04T12:18:40;97069.50;;;11.99;37.18
49515;BME280;35415;47.870;16.058;2023-03-04T12:21:19;97088.56;;;12.13;37.31
49515;BME280;35415;47.870;16.058;2023-03-04T12:24:09;97080.78;;;12.07;38.42
49515;BME280;35415;47.870;16.058;2023-03-04T12:26:45;97095.19;;;12.26;37.34
49515;BME280;35415;47.870;16.058;2023-03-04T12:29:20;97090.06;;;12.24;37.37
49515;BME280;35415;47.870;16.058;2023-03-04T12:31:56;97057.84;;;12.09;36.93
49515;BME280;35415;47.870;16.058;2023-03-04T12:34:32;97046.09;;;11.95;36.76
49515;BME280;35415;47.870;16.058;2023-03-04T12:40:26;97052.31;;;12.24;37.06
49515;BME280;35415;47.870;16.058;2023-03-04T12:43:11;97072.56;;;12.22;37.12
49515;BME280;35415;47.870;16.058;2023-03-04T12:45:46;97043.03;;;12.07;36.39
49515;BME280;35415;47.870;16.058;2023-03-04T12:48:26;97069.88;;;12.22;36.70
49515;BME280;35415;47.870;16.058;2023-03-04T12:51:10;97057.28;;;12.12;36.50
49515;BME280;35415;47.870;16.058;2023-03-04T12:53:53;97086.44;;;12.39;36.38
49515;BME280;35415;47.870;16.058;2023-03-04T12:56:26;97069.03;;;12.26;36.18
49515;BME280;35415;47.870;16.058;2023-03-04T12:59:02;96994.97;;;11.85;36.45
49515;BME280;35415;47.870;16.058;2023-03-04T13:01:37;97063.22;;;12.09;35.68
49515;BME280;35415;47.870;16.058;2023-03-04T13:04:11;97006.88;;;11.79;35.26
49515;BME280;35415;47.870;16.058;2023-03-04T13:06:59;96974.00;;;11.71;35.88
49515;BME280;35415;47.870;16.058;2023-03-04T13:09:32;97061.47;;;12.28;36.32
49515;BME280;35415;47.870;16.058;2023-03-04T13:12:10;97031.78;;;11.99;35.53
49515;BME280;35415;47.870;16.058;2023-03-04T13:17:54;97068.25;;;12.21;35.06
49515;BME280;35415;47.870;16.058;2023-03-04T13:20:33;97043.72;;;12.22;35.25
49515;BME280;35415;47.870;16.058;2023-03-04T13:23:20;97019.50;;;11.83;35.28
49515;BME280;35415;47.870;16.058;2023-03-04T13:26:15;97048.06;;;12.18;34.97
49515;BME280;35415;47.870;16.058;2023-03-04T13:28:51;97040.72;;;12.24;35.15
49515;BME280;35415;47.870;16.058;2023-03-04T13:31:21;97049.16;;;12.17;34.79